sensor_id;sensor_type;location;lat;lon;timestamp;P1;durP1;ratioP1;P2;durP2;ratioP2
249;SDS011;109;19.806;-70.704;2023-02-15T00:01:46;21.13;;;4.90;;
249;SDS011;109;19.806;-70.704;2023-02-15T00:04:14;12.00;;;5.17;;
249;SDS011;109;19.806;-70.704;2023-02-15T00:06:42;10.50;;;4.23;;
249;SDS011;109;19.806;-70.704;2023-02-15T00:09:09;12.80;;;4.50;;
249;SDS011;109;19.806;-70.704;2023-02-15T00:11:43;16.40;;;4.63;;
249;SDS011;109;19.806;-70.704;2023-02-15T00:14:22;17.97;;;5.57;;
249;SDS011;109;19.806;-70.704;2023-02-15T00:16:50;13.07;;;4.90;;
249;SDS011;109;19.806;-70.704;2023-02-15T00:19:24;18.93;;;4.37;;
249;SDS011;109;19.806;-70.704;2023-02-15T00:21:51;8.33;;;4.27;;
249;SDS011;109;19.806;-70.704;2023-02-15T00:24:24;10.43;;;4.93;;
249;SDS011;109;19.806;-70.704;2023-02-15T00:26:51;13.50;;;5.03;;
249;SDS011;109;19.806;-70.704;2023-02-15T00:29:24;12.43;;;4.80;;
249;SDS011;109;19.806;-70.704;2023-02-15T00:31:51;16.00;;;5.43;;
249;SDS011;109;19.806;-70.704;2023-02-15T00:34:32;10.80;;;4.97;;
249;SDS011;109;19.806;-70.704;2023-02-15T00:37:11;13.13;;;5.30;;
249;SDS011;109;19.806;-70.704;2023-02-15T00:40:06;16.30;;;6.10;;
249;SDS011;109;19.806;-70.704;2023-02-15T00:42:39;15.47;;;5.93;;
249;SDS011;109;19.806;-70.704;2023-02-15T00:45:19;16.00;;;7.30;;
249;SDS011;109;19.806;-70.704;2023-02-15T00:47:46;25.63;;;8.73;;
249;SDS011;109;19.806;-70.704;2023-02-15T00:50:27;15.30;;;7.43;;
249;SDS011;109;19.806;-70.704;2023-02-15T00:53:01;21.93;;;7.63;;
249;SDS011;109;19.806;-70.704;2023-02-15T00:55:40;17.43;;;8.47;;
249;SDS011;109;19.806;-70.704;2023-02-15T00:58:07;14.33;;;7.30;;
249;SDS011;109;19.806;-70.704;2023-02-15T01:00:48;19.00;;;7.80;;
249;SDS011;109;19.806;-70.704;2023-02-15T01:03:15;18.83;;;8.27;;
249;SDS011;109;19.806;-70.704;2023-02-15T01:05:57;21.33;;;9.10;;
249;SDS011;109;19.806;-70.704;2023-02-15T01:08:37;16.60;;;8.37;;
249;SDS011;109;19.806;-70.704;2023-02-15T01:11:05;16.53;;;7.53;;
249;SDS011;109;19.806;-70.704;2023-02-15T01:13:47;16.97;;;8.00;;
249;SDS011;109;19.806;-70.704;2023-02-15T01:16:24;20.00;;;8.90;;
249;SDS011;109;19.806;-70.704;2023-02-15T01:19:06;17.93;;;8.33;;
249;SDS011;109;19.806;-70.704;2023-02-15T01:21:33;17.57;;;8.37;;
249;SDS011;109;19.806;-70.704;2023-02-15T01:24:13;23.17;;;8.07;;
249;SDS011;109;19.806;-70.704;2023-02-15T01:26:40;16.83;;;8.30;;
249;SDS011;109;19.806;-70.704;2023-02-15T01:29:20;12.80;;;7.40;;
249;SDS011;109;19.806;-70.704;2023-02-15T01:31:47;15.97;;;7.73;;
249;SDS011;109;19.806;-70.704;2023-02-15T01:34:34;16.67;;;7.67;;
249;SDS011;109;19.806;-70.704;2023-02-15T01:37:13;23.53;;;7.87;;
249;SDS011;109;19.806;-70.704;2023-02-15T01:39:54;17.53;;;7.87;;
249;SDS011;109;19.806;-70.704;2023-02-15T01:42:21;13.53;;;8.13;;
249;SDS011;109;19.806;-70.704;2023-02-15T01:45:04;26.43;;;8.90;;
249;SDS011;109;19.806;-70.704;2023-02-15T01:51:06;17.70;;;7.50;;
249;SDS011;109;19.806;-70.704;2023-02-15T01:53:47;21.40;;;8.57;;
249;SDS011;109;19.806;-70.704;2023-02-15T01:56:38;12.63;;;7.27;;
249;SDS011;109;19.806;-70.704;2023-02-15T01:59:21;15.77;;;6.83;;
249;SDS011;109;19.806;-70.704;2023-02-15T02:01:49;20.03;;;7.77;;
249;SDS011;109;19.806;-70.704;2023-02-15T02:04:35;19.40;;;8.10;;
249;SDS011;109;19.806;-70.704;2023-02-15T02:07:12;15.17;;;7.30;;
249;SDS011;109;19.806;-70.704;2023-02-15T02:09:54;17.97;;;7.33;;
249;SDS011;109;19.806;-70.704;2023-02-15T02:12:22;15.90;;;7.50;;
249;SDS011;109;19.806;-70.704;2023-02-15T02:15:04;16.20;;;7.80;;
249;SDS011;109;19.806;-70.704;2023-02-15T02:23:58;15.27;;;7.80;;
249;SDS011;109;19.806;-70.704;2023-02-15T02:30:06;13.80;;;7.60;;
249;SDS011;109;19.806;-70.704;2023-02-15T02:32:52;15.20;;;7.90;;
249;SDS011;109;19.806;-70.704;2023-02-15T02:41:38;19.73;;;8.10;;
249;SDS011;109;19.806;-70.704;2023-02-15T02:44:43;16.80;;;7.67;;
249;SDS011;109;19.806;-70.704;2023-02-15T02:47:26;16.40;;;8.77;;
249;SDS011;109;19.806;-70.704;2023-02-15T02:50:18;16.10;;;8.30;;
249;SDS011;109;19.806;-70.704;2023-02-15T02:52:56;17.10;;;7.50;;
249;SDS011;109;19.806;-70.704;2023-02-15T02:55:39;15.67;;;7.23;;
249;SDS011;109;19.806;-70.704;2023-02-15T02:58:45;13.43;;;7.23;;
249;SDS011;109;19.806;-70.704;2023-02-15T03:01:33;16.17;;;6.70;;
249;SDS011;109;19.806;-70.704;2023-02-15T03:04:20;24.73;;;8.13;;
249;SDS011;109;19.806;-70.704;2023-02-15T03:09:41;13.03;;;6.87;;
249;SDS011;109;19.806;-70.704;2023-02-15T03:12:23;16.20;;;6.70;;
249;SDS011;109;19.806;-70.704;2023-02-15T03:15:11;15.60;;;6.87;;
249;SDS011;109;19.806;-70.704;2023-02-15T03:17:55;27.73;;;7.70;;
249;SDS011;109;19.806;-70.704;2023-02-15T03:20:39;11.90;;;6.67;;
249;SDS011;109;19.806;-70.704;2023-02-15T03:23:06;17.60;;;7.30;;
249;SDS011;109;19.806;-70.704;2023-02-15T03:26:02;10.90;;;6.20;;
249;SDS011;109;19.806;-70.704;2023-02-15T03:28:45;18.70;;;7.03;;
249;SDS011;109;19.806;-70.704;2023-02-15T03:31:23;10.43;;;5.97;;
249;SDS011;109;19.806;-70.704;2023-02-15T03:34:13;12.80;;;6.37;;
249;SDS011;109;19.806;-70.704;2023-02-15T03:37:04;18.97;;;7.30;;
249;SDS011;109;19.806;-70.704;2023-02-15T03:42:51;11.73;;;6.33;;
249;SDS011;109;19.806;-70.704;2023-02-15T03:45:38;12.17;;;5.77;;
249;SDS011;109;19.806;-70.704;2023-02-15T03:48:35;15.13;;;6.23;;
249;SDS011;109;19.806;-70.704;2023-02-15T03:51:20;18.17;;;6.63;;
249;SDS011;109;19.806;-70.704;2023-02-15T03:54:12;16.20;;;6.00;;
249;SDS011;109;19.806;-70.704;2023-02-15T03:57:14;14.83;;;6.00;;
249;SDS011;109;19.806;-70.704;2023-02-15T04:00:22;12.40;;;6.00;;
249;SDS011;109;19.806;-70.704;2023-02-15T04:06:04;16.40;;;5.87;;
249;SDS011;109;19.806;-70.704;2023-02-15T04:08:44;17.63;;;6.90;;
249;SDS011;109;19.806;-70.704;2023-02-15T04:11:35;14.73;;;6.53;;
249;SDS011;109;19.806;-70.704;2023-02-15T04:14:15;14.27;;;7.07;;
249;SDS011;109;19.806;-70.704;2023-02-15T04:17:07;13.53;;;6.10;;
249;SDS011;109;19.806;-70.704;2023-02-15T04:19:48;13.73;;;5.77;;
249;SDS011;109;19.806;-70.704;2023-02-15T04:22:39;13.17;;;6.20;;
249;SDS011;109;19.806;-70.704;2023-02-15T04:25:37;16.23;;;6.20;;
249;SDS011;109;19.806;-70.704;2023-02-15T04:28:10;14.67;;;6.40;;
249;SDS011;109;19.806;-70.704;2023-02-15T04:30:49;11.00;;;5.80;;
249;SDS011;109;19.806;-70.704;2023-02-15T04:33:37;12.10;;;5.57;;
249;SDS011;109;19.806;-70.704;2023-02-15T04:36:16;14.00;;;6.10;;
249;SDS011;109;19.806;-70.704;2023-02-15T04:38:56;11.80;;;5.93;;
249;SDS011;109;19.806;-70.704;2023-02-15T04:41:23;14.70;;;5.60;;
249;SDS011;109;19.806;-70.704;2023-02-15T04:44:02;12.93;;;5.60;;
249;SDS011;109;19.806;-70.704;2023-02-15T04:46:29;11.70;;;5.70;;
249;SDS011;109;19.806;-70.704;2023-02-15T04:49:10;11.97;;;5.67;;
249;SDS011;109;19.806;-70.704;2023-02-15T04:51:37;12.60;;;5.97;;
249;SDS011;109;19.806;-70.704;2023-02-15T04:54:16;11.60;;;5.93;;
249;SDS011;109;19.806;-70.704;2023-02-15T04:56:43;14.50;;;5.80;;
249;SDS011;109;19.806;-70.704;2023-02-15T04:59:22;13.47;;;5.87;;
249;SDS011;109;19.806;-70.704;2023-02-15T05:01:56;23.10;;;6.60;;
249;SDS011;109;19.806;-70.704;2023-02-15T05:04:37;16.53;;;5.73;;
249;SDS011;109;19.806;-70.704;2023-02-15T05:07:03;19.33;;;5.47;;
249;SDS011;109;19.806;-70.704;2023-02-15T05:09:42;16.13;;;5.23;;
249;SDS011;109;19.806;-70.704;2023-02-15T05:12:09;15.57;;;5.40;;
249;SDS011;109;19.806;-70.704;2023-02-15T05:14:48;12.63;;;4.90;;
249;SDS011;109;19.806;-70.704;2023-02-15T05:17:15;12.60;;;5.30;;
249;SDS011;109;19.806;-70.704;2023-02-15T05:19:55;14.40;;;5.20;;
249;SDS011;109;19.806;-70.704;2023-02-15T05:22:22;14.73;;;5.13;;
249;SDS011;109;19.806;-70.704;2023-02-15T05:25:02;14.83;;;6.93;;
249;SDS011;109;19.806;-70.704;2023-02-15T05:28:00;14.93;;;5.43;;
249;SDS011;109;19.806;-70.704;2023-02-15T05:31:02;13.67;;;5.40;;
249;SDS011;109;19.806;-70.704;2023-02-15T05:33:49;17.70;;;5.43;;
249;SDS011;109;19.806;-70.704;2023-02-15T05:36:28;8.17;;;5.00;;
249;SDS011;109;19.806;-70.704;2023-02-15T05:39:09;11.30;;;5.27;;
249;SDS011;109;19.806;-70.704;2023-02-15T05:41:36;15.07;;;5.27;;
249;SDS011;109;19.806;-70.704;2023-02-15T05:44:15;13.90;;;5.77;;
249;SDS011;109;19.806;-70.704;2023-02-15T05:46:42;11.07;;;5.37;;
249;SDS011;109;19.806;-70.704;2023-02-15T05:49:21;10.40;;;5.03;;
249;SDS011;109;19.806;-70.704;2023-02-15T05:51:48;16.83;;;5.60;;
249;SDS011;109;19.806;-70.704;2023-02-15T05:54:28;12.80;;;5.10;;
249;SDS011;109;19.806;-70.704;2023-02-15T05:56:55;12.70;;;5.23;;
249;SDS011;109;19.806;-70.704;2023-02-15T05:59:34;8.47;;;4.60;;
249;SDS011;109;19.806;-70.704;2023-02-15T06:02:01;21.93;;;6.00;;
249;SDS011;109;19.806;-70.704;2023-02-15T06:04:40;12.53;;;5.00;;
249;SDS011;109;19.806;-70.704;2023-02-15T06:07:07;11.60;;;5.30;;
249;SDS011;109;19.806;-70.704;2023-02-15T06:09:48;12.30;;;5.30;;
249;SDS011;109;19.806;-70.704;2023-02-15T06:12:14;12.50;;;5.23;;
249;SDS011;109;19.806;-70.704;2023-02-15T06:14:54;10.20;;;4.97;;
249;SDS011;109;19.806;-70.704;2023-02-15T06:17:20;11.13;;;5.07;;
249;SDS011;109;19.806;-70.704;2023-02-15T06:20:07;11.57;;;5.57;;
249;SDS011;109;19.806;-70.704;2023-02-15T06:22:40;8.67;;;4.60;;
249;SDS011;109;19.806;-70.704;2023-02-15T06:25:22;13.80;;;5.30;;
249;SDS011;109;19.806;-70.704;2023-02-15T06:27:50;10.50;;;4.77;;
249;SDS011;109;19.806;-70.704;2023-02-15T06:30:30;13.77;;;5.30;;
249;SDS011;109;19.806;-70.704;2023-02-15T06:32:56;14.83;;;4.80;;
249;SDS011;109;19.806;-70.704;2023-02-15T06:35:42;8.63;;;4.90;;
249;SDS011;109;19.806;-70.704;2023-02-15T06:38:22;18.90;;;4.80;;
249;SDS011;109;19.806;-70.704;2023-02-15T06:41:02;11.10;;;5.20;;
249;SDS011;109;19.806;-70.704;2023-02-15T06:43:42;8.17;;;4.47;;
249;SDS011;109;19.806;-70.704;2023-02-15T06:46:09;12.40;;;4.70;;
249;SDS011;109;19.806;-70.704;2023-02-15T06:48:56;12.43;;;4.57;;
249;SDS011;109;19.806;-70.704;2023-02-15T06:51:29;10.93;;;4.40;;
249;SDS011;109;19.806;-70.704;2023-02-15T06:54:09;16.00;;;4.73;;
249;SDS011;109;19.806;-70.704;2023-02-15T06:56:36;8.70;;;4.50;;
249;SDS011;109;19.806;-70.704;2023-02-15T06:59:16;7.07;;;4.50;;
249;SDS011;109;19.806;-70.704;2023-02-15T07:01:43;9.53;;;4.77;;
249;SDS011;109;19.806;-70.704;2023-02-15T07:04:22;9.30;;;4.27;;
249;SDS011;109;19.806;-70.704;2023-02-15T07:06:49;12.87;;;4.57;;
249;SDS011;109;19.806;-70.704;2023-02-15T07:09:28;11.60;;;4.50;;
249;SDS011;109;19.806;-70.704;2023-02-15T07:11:55;9.90;;;4.50;;
249;SDS011;109;19.806;-70.704;2023-02-15T07:14:54;9.03;;;4.70;;
249;SDS011;109;19.806;-70.704;2023-02-15T07:17:20;8.27;;;4.47;;
249;SDS011;109;19.806;-70.704;2023-02-15T07:20:01;12.47;;;5.10;;
249;SDS011;109;19.806;-70.704;2023-02-15T07:22:47;14.17;;;4.57;;
249;SDS011;109;19.806;-70.704;2023-02-15T07:25:27;11.20;;;5.20;;
249;SDS011;109;19.806;-70.704;2023-02-15T07:27:58;10.50;;;4.40;;
249;SDS011;109;19.806;-70.704;2023-02-15T07:30:42;13.37;;;4.60;;
249;SDS011;109;19.806;-70.704;2023-02-15T07:33:09;18.43;;;5.00;;
249;SDS011;109;19.806;-70.704;2023-02-15T07:36:05;20.93;;;5.70;;
249;SDS011;109;19.806;-70.704;2023-02-15T07:38:46;10.37;;;4.10;;
249;SDS011;109;19.806;-70.704;2023-02-15T07:41:14;8.80;;;4.73;;
249;SDS011;109;19.806;-70.704;2023-02-15T07:43:55;17.23;;;5.13;;
249;SDS011;109;19.806;-70.704;2023-02-15T07:46:22;10.93;;;4.53;;
249;SDS011;109;19.806;-70.704;2023-02-15T07:49:09;10.30;;;4.17;;
249;SDS011;109;19.806;-70.704;2023-02-15T07:51:42;14.30;;;4.93;;
249;SDS011;109;19.806;-70.704;2023-02-15T07:54:22;9.43;;;4.60;;
249;SDS011;109;19.806;-70.704;2023-02-15T07:56:49;12.50;;;5.00;;
249;SDS011;109;19.806;-70.704;2023-02-15T07:59:28;11.00;;;3.90;;
249;SDS011;109;19.806;-70.704;2023-02-15T08:01:55;13.93;;;4.93;;
249;SDS011;109;19.806;-70.704;2023-02-15T08:04:35;11.53;;;4.80;;
249;SDS011;109;19.806;-70.704;2023-02-15T08:07:02;11.63;;;4.23;;
249;SDS011;109;19.806;-70.704;2023-02-15T08:09:41;11.70;;;4.70;;
249;SDS011;109;19.806;-70.704;2023-02-15T08:12:08;11.90;;;4.00;;
249;SDS011;109;19.806;-70.704;2023-02-15T08:14:47;8.27;;;4.40;;
249;SDS011;109;19.806;-70.704;2023-02-15T08:17:14;9.70;;;4.23;;
249;SDS011;109;19.806;-70.704;2023-02-15T08:19:55;12.43;;;4.10;;
249;SDS011;109;19.806;-70.704;2023-02-15T08:22:22;10.53;;;3.87;;
249;SDS011;109;19.806;-70.704;2023-02-15T08:25:10;8.30;;;4.20;;
249;SDS011;109;19.806;-70.704;2023-02-15T08:27:43;10.73;;;4.43;;
249;SDS011;109;19.806;-70.704;2023-02-15T08:30:23;7.87;;;3.90;;
249;SDS011;109;19.806;-70.704;2023-02-15T08:32:50;12.77;;;4.00;;
249;SDS011;109;19.806;-70.704;2023-02-15T08:35:37;15.53;;;4.90;;
249;SDS011;109;19.806;-70.704;2023-02-15T08:38:16;7.83;;;4.10;;
249;SDS011;109;19.806;-70.704;2023-02-15T08:40:56;11.77;;;4.17;;
249;SDS011;109;19.806;-70.704;2023-02-15T08:43:36;7.30;;;3.60;;
249;SDS011;109;19.806;-70.704;2023-02-15T08:46:04;10.27;;;3.93;;
249;SDS011;109;19.806;-70.704;2023-02-15T08:48:49;13.90;;;5.50;;
249;SDS011;109;19.806;-70.704;2023-02-15T08:51:43;9.07;;;3.90;;
249;SDS011;109;19.806;-70.704;2023-02-15T08:54:23;7.03;;;3.80;;
249;SDS011;109;19.806;-70.704;2023-02-15T08:56:50;11.70;;;4.20;;
249;SDS011;109;19.806;-70.704;2023-02-15T08:59:30;10.70;;;4.60;;
249;SDS011;109;19.806;-70.704;2023-02-15T09:01:57;9.47;;;4.07;;
249;SDS011;109;19.806;-70.704;2023-02-15T09:04:37;13.93;;;3.90;;
249;SDS011;109;19.806;-70.704;2023-02-15T09:07:03;12.53;;;4.37;;
249;SDS011;109;19.806;-70.704;2023-02-15T09:09:45;10.70;;;4.07;;
249;SDS011;109;19.806;-70.704;2023-02-15T09:12:12;9.93;;;4.00;;
249;SDS011;109;19.806;-70.704;2023-02-15T09:14:52;11.60;;;4.53;;
249;SDS011;109;19.806;-70.704;2023-02-15T09:17:18;11.67;;;4.30;;
249;SDS011;109;19.806;-70.704;2023-02-15T09:19:58;16.73;;;4.87;;
249;SDS011;109;19.806;-70.704;2023-02-15T09:22:24;11.07;;;4.10;;
249;SDS011;109;19.806;-70.704;2023-02-15T09:25:05;16.73;;;4.60;;
249;SDS011;109;19.806;-70.704;2023-02-15T09:27:32;10.30;;;4.20;;
249;SDS011;109;19.806;-70.704;2023-02-15T09:30:13;9.23;;;4.63;;
249;SDS011;109;19.806;-70.704;2023-02-15T09:32:39;13.37;;;4.57;;
249;SDS011;109;19.806;-70.704;2023-02-15T09:35:26;10.23;;;4.50;;
249;SDS011;109;19.806;-70.704;2023-02-15T09:37:59;11.70;;;4.10;;
249;SDS011;109;19.806;-70.704;2023-02-15T09:40:51;14.20;;;5.10;;
249;SDS011;109;19.806;-70.704;2023-02-15T09:44:00;8.60;;;3.93;;
249;SDS011;109;19.806;-70.704;2023-02-15T09:50:00;9.93;;;4.00;;
249;SDS011;109;19.806;-70.704;2023-02-15T09:58:48;6.20;;;3.70;;
249;SDS011;109;19.806;-70.704;2023-02-15T10:13:32;9.53;;;4.60;;
249;SDS011;109;19.806;-70.704;2023-02-15T10:16:38;9.23;;;4.43;;
249;SDS011;109;19.806;-70.704;2023-02-15T10:23:03;9.40;;;4.33;;
249;SDS011;109;19.806;-70.704;2023-02-15T10:29:29;10.20;;;4.37;;
249;SDS011;109;19.806;-70.704;2023-02-15T10:47:39;16.50;;;6.43;;
249;SDS011;109;19.806;-70.704;2023-02-15T10:53:11;14.80;;;5.30;;
249;SDS011;109;19.806;-70.704;2023-02-15T10:58:38;9.40;;;5.10;;
249;SDS011;109;19.806;-70.704;2023-02-15T11:06:55;9.80;;;4.10;;
249;SDS011;109;19.806;-70.704;2023-02-15T11:09:29;11.63;;;4.47;;
249;SDS011;109;19.806;-70.704;2023-02-15T11:12:07;9.20;;;4.57;;
249;SDS011;109;19.806;-70.704;2023-02-15T11:17:14;11.73;;;4.60;;
249;SDS011;109;19.806;-70.704;2023-02-15T11:19:54;12.00;;;4.80;;
249;SDS011;109;19.806;-70.704;2023-02-15T11:22:26;11.57;;;4.80;;
249;SDS011;109;19.806;-70.704;2023-02-15T11:24:52;18.33;;;4.77;;
249;SDS011;109;19.806;-70.704;2023-02-15T11:27:21;12.47;;;5.23;;
249;SDS011;109;19.806;-70.704;2023-02-15T11:30:25;10.80;;;4.80;;
249;SDS011;109;19.806;-70.704;2023-02-15T11:32:48;18.43;;;5.47;;
249;SDS011;109;19.806;-70.704;2023-02-15T11:35:22;14.00;;;5.10;;
249;SDS011;109;19.806;-70.704;2023-02-15T11:38:09;17.30;;;5.07;;
249;SDS011;109;19.806;-70.704;2023-02-15T11:40:51;14.80;;;5.33;;
249;SDS011;109;19.806;-70.704;2023-02-15T11:43:30;15.73;;;4.90;;
249;SDS011;109;19.806;-70.704;2023-02-15T11:45:57;13.70;;;5.97;;
249;SDS011;109;19.806;-70.704;2023-02-15T11:48:24;16.70;;;6.63;;
249;SDS011;109;19.806;-70.704;2023-02-15T11:50:51;21.60;;;7.60;;
249;SDS011;109;19.806;-70.704;2023-02-15T11:53:18;24.03;;;9.80;;
249;SDS011;109;19.806;-70.704;2023-02-15T11:55:50;20.47;;;10.03;;
249;SDS011;109;19.806;-70.704;2023-02-15T12:03:54;22.40;;;7.50;;
249;SDS011;109;19.806;-70.704;2023-02-15T12:06:28;17.33;;;7.00;;
249;SDS011;109;19.806;-70.704;2023-02-15T12:12:19;8.33;;;4.23;;
249;SDS011;109;19.806;-70.704;2023-02-15T12:14:49;9.37;;;4.00;;
249;SDS011;109;19.806;-70.704;2023-02-15T12:17:37;11.60;;;3.90;;
249;SDS011;109;19.806;-70.704;2023-02-15T12:22:46;7.33;;;3.90;;
249;SDS011;109;19.806;-70.704;2023-02-15T12:28:36;7.30;;;3.27;;
249;SDS011;109;19.806;-70.704;2023-02-15T12:31:17;5.50;;;3.30;;
249;SDS011;109;19.806;-70.704;2023-02-15T12:33:47;8.27;;;2.70;;
249;SDS011;109;19.806;-70.704;2023-02-15T12:36:29;2.90;;;2.57;;
249;SDS011;109;19.806;-70.704;2023-02-15T12:41:46;4.80;;;3.00;;
249;SDS011;109;19.806;-70.704;2023-02-15T12:44:24;5.50;;;2.97;;
249;SDS011;109;19.806;-70.704;2023-02-15T12:47:16;9.53;;;6.20;;
249;SDS011;109;19.806;-70.704;2023-02-15T12:49:45;12.50;;;8.50;;
249;SDS011;109;19.806;-70.704;2023-02-15T12:52:29;14.03;;;8.77;;
249;SDS011;109;19.806;-70.704;2023-02-15T12:54:58;7.33;;;4.80;;
249;SDS011;109;19.806;-70.704;2023-02-15T12:57:43;8.40;;;5.57;;
249;SDS011;109;19.806;-70.704;2023-02-15T13:02:46;5.97;;;3.30;;
249;SDS011;109;19.806;-70.704;2023-02-15T13:08:09;6.10;;;2.93;;
249;SDS011;109;19.806;-70.704;2023-02-15T13:10:41;8.83;;;2.83;;
249;SDS011;109;19.806;-70.704;2023-02-15T13:13:29;5.03;;;2.20;;
249;SDS011;109;19.806;-70.704;2023-02-15T13:15:59;4.13;;;2.60;;
249;SDS011;109;19.806;-70.704;2023-02-15T13:18:39;12.43;;;3.90;;
249;SDS011;109;19.806;-70.704;2023-02-15T13:23:45;10.00;;;4.57;;
249;SDS011;109;19.806;-70.704;2023-02-15T13:26:29;13.00;;;5.03;;
249;SDS011;109;19.806;-70.704;2023-02-15T13:29:08;8.47;;;4.10;;
249;SDS011;109;19.806;-70.704;2023-02-15T13:31:43;12.20;;;5.00;;
249;SDS011;109;19.806;-70.704;2023-02-15T13:34:32;6.80;;;4.00;;
249;SDS011;109;19.806;-70.704;2023-02-15T13:42:35;9.00;;;5.30;;
249;SDS011;109;19.806;-70.704;2023-02-15T13:51:05;9.23;;;4.40;;
249;SDS011;109;19.806;-70.704;2023-02-15T13:59:00;7.83;;;4.37;;
249;SDS011;109;19.806;-70.704;2023-02-15T14:01:44;9.27;;;4.50;;
249;SDS011;109;19.806;-70.704;2023-02-15T14:16:17;6.70;;;4.00;;
249;SDS011;109;19.806;-70.704;2023-02-15T14:22:00;6.40;;;2.90;;
249;SDS011;109;19.806;-70.704;2023-02-15T14:24:36;8.07;;;2.70;;
249;SDS011;109;19.806;-70.704;2023-02-15T14:27:24;8.43;;;3.30;;
249;SDS011;109;19.806;-70.704;2023-02-15T14:30:02;6.80;;;2.87;;
249;SDS011;109;19.806;-70.704;2023-02-15T14:32:39;10.40;;;3.03;;
249;SDS011;109;19.806;-70.704;2023-02-15T14:35:15;12.80;;;3.20;;
249;SDS011;109;19.806;-70.704;2023-02-15T14:37:50;8.93;;;3.40;;
249;SDS011;109;19.806;-70.704;2023-02-15T14:43:34;7.93;;;3.00;;
249;SDS011;109;19.806;-70.704;2023-02-15T14:48:41;14.03;;;4.10;;
249;SDS011;109;19.806;-70.704;2023-02-15T14:56:44;7.10;;;3.17;;
249;SDS011;109;19.806;-70.704;2023-02-15T15:01:37;12.57;;;2.97;;
249;SDS011;109;19.806;-70.704;2023-02-15T15:04:21;11.47;;;2.90;;
249;SDS011;109;19.806;-70.704;2023-02-15T15:06:59;11.43;;;3.37;;
249;SDS011;109;19.806;-70.704;2023-02-15T15:09:27;8.83;;;2.60;;
249;SDS011;109;19.806;-70.704;2023-02-15T15:14:58;7.93;;;3.10;;
249;SDS011;109;19.806;-70.704;2023-02-15T15:20:12;9.67;;;3.40;;
249;SDS011;109;19.806;-70.704;2023-02-15T15:23:33;21.00;;;3.10;;
249;SDS011;109;19.806;-70.704;2023-02-15T15:26:29;10.47;;;2.60;;
249;SDS011;109;19.806;-70.704;2023-02-15T15:29:06;7.40;;;3.63;;
249;SDS011;109;19.806;-70.704;2023-02-15T15:34:17;9.97;;;3.97;;
249;SDS011;109;19.806;-70.704;2023-02-15T15:42:51;13.80;;;5.53;;
249;SDS011;109;19.806;-70.704;2023-02-15T15:45:50;11.80;;;4.43;;
249;SDS011;109;19.806;-70.704;2023-02-15T15:48:35;7.23;;;4.53;;
249;SDS011;109;19.806;-70.704;2023-02-15T15:51:18;7.10;;;4.83;;
249;SDS011;109;19.806;-70.704;2023-02-15T15:53:49;10.83;;;5.77;;
249;SDS011;109;19.806;-70.704;2023-02-15T15:56:19;6.40;;;3.50;;
249;SDS011;109;19.806;-70.704;2023-02-15T15:58:49;8.60;;;2.93;;
249;SDS011;109;19.806;-70.704;2023-02-15T16:01:34;5.47;;;2.70;;
249;SDS011;109;19.806;-70.704;2023-02-15T16:04:10;6.53;;;2.57;;
249;SDS011;109;19.806;-70.704;2023-02-15T16:06:58;12.53;;;3.30;;
249;SDS011;109;19.806;-70.704;2023-02-15T16:10:03;8.10;;;3.23;;
249;SDS011;109;19.806;-70.704;2023-02-15T16:12:31;9.00;;;2.60;;
249;SDS011;109;19.806;-70.704;2023-02-15T16:15:04;8.37;;;2.90;;
249;SDS011;109;19.806;-70.704;2023-02-15T16:17:48;17.67;;;3.07;;
249;SDS011;109;19.806;-70.704;2023-02-15T16:23:05;16.67;;;4.33;;
249;SDS011;109;19.806;-70.704;2023-02-15T16:28:27;19.97;;;4.00;;
249;SDS011;109;19.806;-70.704;2023-02-15T16:30:58;17.60;;;3.47;;
249;SDS011;109;19.806;-70.704;2023-02-15T16:33:38;15.50;;;3.87;;
249;SDS011;109;19.806;-70.704;2023-02-15T16:36:10;15.90;;;2.90;;
249;SDS011;109;19.806;-70.704;2023-02-15T16:41:30;11.10;;;3.00;;
249;SDS011;109;19.806;-70.704;2023-02-15T16:43:58;12.63;;;3.33;;
249;SDS011;109;19.806;-70.704;2023-02-15T16:46:39;13.60;;;2.77;;
249;SDS011;109;19.806;-70.704;2023-02-15T16:49:15;27.27;;;4.90;;
249;SDS011;109;19.806;-70.704;2023-02-15T16:51:56;17.23;;;3.47;;
249;SDS011;109;19.806;-70.704;2023-02-15T16:54:25;15.03;;;2.90;;
249;SDS011;109;19.806;-70.704;2023-02-15T16:56:55;18.97;;;3.17;;
249;SDS011;109;19.806;-70.704;2023-02-15T16:59:35;11.63;;;2.77;;
249;SDS011;109;19.806;-70.704;2023-02-15T17:02:16;8.47;;;2.63;;
249;SDS011;109;19.806;-70.704;2023-02-15T17:04:44;11.20;;;2.30;;
249;SDS011;109;19.806;-70.704;2023-02-15T17:07:26;10.87;;;3.30;;
249;SDS011;109;19.806;-70.704;2023-02-15T17:09:54;18.70;;;4.80;;
249;SDS011;109;19.806;-70.704;2023-02-15T17:18:21;35.07;;;4.67;;
249;SDS011;109;19.806;-70.704;2023-02-15T17:20:50;14.83;;;3.10;;
249;SDS011;109;19.806;-70.704;2023-02-15T17:23:31;20.70;;;3.90;;
249;SDS011;109;19.806;-70.704;2023-02-15T17:28:45;21.20;;;2.73;;
249;SDS011;109;19.806;-70.704;2023-02-15T17:31:15;20.40;;;3.57;;
249;SDS011;109;19.806;-70.704;2023-02-15T17:33:44;22.10;;;3.70;;
249;SDS011;109;19.806;-70.704;2023-02-15T17:36:12;14.43;;;3.53;;
249;SDS011;109;19.806;-70.704;2023-02-15T17:43:53;10.33;;;3.53;;
249;SDS011;109;19.806;-70.704;2023-02-15T17:46:20;17.47;;;3.50;;
249;SDS011;109;19.806;-70.704;2023-02-15T17:48:49;25.23;;;3.50;;
249;SDS011;109;19.806;-70.704;2023-02-15T17:51:17;10.90;;;3.00;;
249;SDS011;109;19.806;-70.704;2023-02-15T17:53:45;18.13;;;3.77;;
249;SDS011;109;19.806;-70.704;2023-02-15T17:56:35;17.93;;;3.67;;
249;SDS011;109;19.806;-70.704;2023-02-15T17:59:03;14.23;;;2.80;;
249;SDS011;109;19.806;-70.704;2023-02-15T18:01:34;17.33;;;3.20;;
249;SDS011;109;19.806;-70.704;2023-02-15T18:04:25;16.50;;;2.97;;
249;SDS011;109;19.806;-70.704;2023-02-15T18:07:10;23.43;;;3.53;;
249;SDS011;109;19.806;-70.704;2023-02-15T18:09:56;23.87;;;3.27;;
249;SDS011;109;19.806;-70.704;2023-02-15T18:12:41;18.10;;;3.50;;
249;SDS011;109;19.806;-70.704;2023-02-15T18:15:08;8.70;;;3.40;;
249;SDS011;109;19.806;-70.704;2023-02-15T18:17:38;13.50;;;3.20;;
249;SDS011;109;19.806;-70.704;2023-02-15T18:20:41;12.73;;;2.90;;
249;SDS011;109;19.806;-70.704;2023-02-15T18:23:01;17.87;;;3.27;;
249;SDS011;109;19.806;-70.704;2023-02-15T18:25:28;11.93;;;2.43;;
249;SDS011;109;19.806;-70.704;2023-02-15T18:27:54;12.97;;;2.80;;
249;SDS011;109;19.806;-70.704;2023-02-15T18:30:22;9.83;;;3.13;;
249;SDS011;109;19.806;-70.704;2023-02-15T18:32:51;30.43;;;3.00;;
249;SDS011;109;19.806;-70.704;2023-02-15T18:35:23;14.23;;;2.70;;
249;SDS011;109;19.806;-70.704;2023-02-15T18:37:53;17.37;;;2.97;;
249;SDS011;109;19.806;-70.704;2023-02-15T18:40:21;19.63;;;3.13;;
249;SDS011;109;19.806;-70.704;2023-02-15T18:42:50;20.43;;;3.17;;
249;SDS011;109;19.806;-70.704;2023-02-15T18:45:18;10.07;;;2.67;;
249;SDS011;109;19.806;-70.704;2023-02-15T18:47:47;17.93;;;3.00;;
249;SDS011;109;19.806;-70.704;2023-02-15T18:50:14;18.33;;;3.70;;
249;SDS011;109;19.806;-70.704;2023-02-15T18:52:42;16.50;;;3.10;;
249;SDS011;109;19.806;-70.704;2023-02-15T18:57:45;14.97;;;3.40;;
249;SDS011;109;19.806;-70.704;2023-02-15T19:00:24;34.27;;;4.73;;
249;SDS011;109;19.806;-70.704;2023-02-15T19:02:57;15.87;;;2.90;;
249;SDS011;109;19.806;-70.704;2023-02-15T19:05:25;10.97;;;2.70;;
249;SDS011;109;19.806;-70.704;2023-02-15T19:07:53;19.37;;;3.93;;
249;SDS011;109;19.806;-70.704;2023-02-15T19:10:21;15.87;;;2.90;;
249;SDS011;109;19.806;-70.704;2023-02-15T19:12:49;18.53;;;3.53;;
249;SDS011;109;19.806;-70.704;2023-02-15T19:15:24;19.17;;;3.23;;
249;SDS011;109;19.806;-70.704;2023-02-15T19:17:52;18.90;;;3.00;;
249;SDS011;109;19.806;-70.704;2023-02-15T19:20:23;21.13;;;3.60;;
249;SDS011;109;19.806;-70.704;2023-02-15T19:22:52;23.80;;;3.10;;